メインページ
METAR-TAF:

METAR-TAF

空港 :

ロンドン・ヒースロー空港, イングランド

緯度: 51-29N, 経度: 000-27W, 海抜: 24m

現時点の気象観測

当レポートは34分前の11:20(UTC)に作成
西の風 22kt
気温 7°C
湿度 70%
気圧 990 hPa
視程10km以上

METAR: EGLL 141120Z AUTO 26022KT 9999 FEW037/// //////TCU 07/02 Q0990 NOSIG

時間: 11:54 (11:54 UTC)

予報

当レポートは55分前の10:59(UTC)に作成
予報は14日の 12時(UTC)から 15日の 18時(UTC)まで有効
西の風 18kt、最大32ktの突風を伴う
視程10km以上
高度3000ftの雲はほとんどない
確率 30% :
14日の 12時(UTC)から 14日の 13時(UTC)まで一時的に
視程: 7000m
にわか雨
14日の 15時(UTC)から 14日の 18時(UTC)まで徐々に
の風 10kt
14日の 20時(UTC)から 15日の 02時(UTC)まで一時的に
視程: 7000m
高度1400ftの千切れ雲あり
にわか雨
14日の 20時(UTC)から 15日の 09時(UTC)まで一時的に
西/南西の風 16kt、最大26ktの突風を伴う
確率 40% :
14日の 21時(UTC)から 15日の 02時(UTC)まで一時的に
視程: 3000m
激しいにわか雨
14日の 23時(UTC)から 15日の 02時(UTC)まで徐々に
西/南西の風 12kt
確率 30% :
15日の 02時(UTC)から 15日の 08時(UTC)まで一時的に
視程: 7000m
高度1400ftの千切れ雲あり
にわか雨
15日の 15時(UTC)から 15日の 18時(UTC)まで徐々に
の風 10kt

TAF: EGLL 141059Z 1412/1518 26018G32KT 9999 FEW030 PROB30 TEMPO 1412/1413 7000 SHRA BECMG 1415/1418 19010KT TEMPO 1420/1502 7000 SHRA BKN014 TEMPO 1420/1509 24016G26KT PROB40 TEMPO 1421/1502 3000 +SHRA BECMG 1423/1502 25012KT PROB30 TEMPO 1502/1508 7000 SHRA BKN014 BECMG 1515/1518 19010KT

4,000以上の空港の気象観測と天気予報(METAR報とTAF報)

利用可能な観測所は地図上に黄色い丸と赤い丸で示す。

丸の上にカーソルを重ねると観測所名を参照できる。

次にクリックすると気象観測と天気予報を参照できる。

マップの切り替え:黒色「×」印の緑ボタンをクリックして拡大、「-」印の緑ボタンをクリックして縮小、緑色の三角印をクリックして隣りの地図に切り替え


METAR-TAF: